Time;durP1;ratioP1;P1;durP2;ratioP2;P2;SDS_P1;SDS_P2;PMS_P1;PMS_P2;Temp;Humidity;BMP_temperature;BMP_pressure;BME280_temperature;BME280_humidity;BME280_pressure;Samples;Min_cycle;Max_cycle;Signal;HPM_P1;HPM_P2
2021/03/11 00:01:50;;;;;;;18.33;14.33;;;;;;;6.27;79.91;100298.94;5094024;28;20377;-41
2021/03/11 00:04:16;;;;;;;17.13;12.90;;;;;;;6.31;79.23;100297.50;5094281;28;20479;-41
2021/03/11 00:06:41;;;;;;;17.48;12.65;;;;;;;6.33;79.51;100292.72;5093499;28;20070;-40
2021/03/11 00:09:07;;;;;;;19.20;14.17;;;;;;;6.32;80.30;100283.84;5094263;28;20039;-42
2021/03/11 00:11:32;;;;;;;18.73;13.97;;;;;;;6.30;80.24;100263.63;5093537;28;20039;-40
2021/03/11 00:13:57;;;;;;;17.80;13.07;;;;;;;6.33;80.68;100276.59;5093904;28;20052;-40
2021/03/11 00:16:23;;;;;;;16.97;13.17;;;;;;;6.32;80.60;100270.41;5093547;28;20456;-41
2021/03/11 00:18:48;;;;;;;17.13;13.53;;;;;;;6.36;80.83;100273.50;5093596;28;20024;-40
2021/03/11 00:21:13;;;;;;;21.00;13.90;;;;;;;6.35;81.06;100272.66;5093554;28;20035;-40
2021/03/11 00:23:39;;;;;;;21.13;14.33;;;;;;;6.34;81.51;100260.25;5093403;28;20036;-40
2021/03/11 00:26:04;;;;;;;18.53;13.20;;;;;;;6.33;81.47;100263.16;5093506;28;20031;-40
2021/03/11 00:28:29;;;;;;;18.00;13.93;;;;;;;6.30;81.69;100259.06;5093210;28;20067;-40
2021/03/11 00:30:55;;;;;;;20.13;13.47;;;;;;;6.29;82.11;100252.03;5093775;28;20028;-40
2021/03/11 00:33:20;;;;;;;16.63;13.27;;;;;;;6.24;82.74;100238.44;5093381;28;20028;-40
2021/03/11 00:35:46;;;;;;;15.50;12.80;;;;;;;6.30;82.81;100234.09;5092584;28;20086;-40
2021/03/11 00:38:11;;;;;;;17.20;13.17;;;;;;;6.26;83.04;100233.69;5093094;28;20034;-40
2021/03/11 00:40:36;;;;;;;21.20;13.97;;;;;;;6.26;83.21;100220.25;5093682;28;20349;-40
2021/03/11 00:43:02;;;;;;;16.93;13.33;;;;;;;6.24;83.66;100227.69;5094961;28;20494;-40
2021/03/11 00:45:27;;;;;;;19.73;15.27;;;;;;;6.24;83.25;100197.34;5097302;28;20048;-40
2021/03/11 00:47:52;;;;;;;16.80;13.50;;;;;;;6.25;83.35;100193.66;5097250;28;20047;-41
2021/03/11 00:50:20;;;;;;;18.43;13.37;;;;;;;6.25;84.15;100189.09;5097601;28;20031;-40
2021/03/11 00:52:46;;;;;;;18.58;13.43;;;;;;;6.25;83.89;100189.09;5097404;28;20032;-40
2021/03/11 00:55:13;;;;;;;14.93;12.15;;;;;;;6.29;83.96;100205.56;5097413;28;20088;-40
2021/03/11 00:57:39;;;;;;;16.98;14.20;;;;;;;6.26;84.00;100187.22;5097407;28;20024;-40
2021/03/11 01:00:07;;;;;;;18.48;14.25;;;;;;;6.28;83.66;100177.91;5097078;28;20085;-40
2021/03/11 01:02:32;;;;;;;16.00;12.38;;;;;;;6.30;83.79;100175.84;5096936;28;20059;-40
2021/03/11 01:04:58;;;;;;;16.80;13.70;;;;;;;6.30;83.86;100165.09;5096116;28;20062;-40
2021/03/11 01:07:23;;;;;;;15.83;13.07;;;;;;;6.35;83.68;100169.81;5095252;28;20071;-40
2021/03/11 01:09:48;;;;;;;20.03;13.17;;;;;;;6.36;82.92;100169.56;5096984;28;20039;-40
2021/03/11 01:12:15;;;;;;;21.13;14.03;;;;;;;6.35;83.45;100170.63;5097010;28;20106;-40
2021/03/11 01:14:41;;;;;;;17.27;13.40;;;;;;;6.35;84.08;100162.56;5097069;28;20497;-40
2021/03/11 01:17:07;;;;;;;16.75;12.82;;;;;;;6.38;83.32;100155.91;5096712;28;20082;-40
2021/03/11 01:19:33;;;;;;;15.68;12.32;;;;;;;6.39;83.62;100142.28;5096498;28;20032;-40
2021/03/11 01:21:58;;;;;;;16.48;13.13;;;;;;;6.41;83.77;100140.19;5096306;28;20537;-40
2021/03/11 01:24:23;;;;;;;18.23;14.33;;;;;;;6.40;83.63;100138.56;5096593;28;20078;-40
2021/03/11 01:26:49;;;;;;;16.70;13.73;;;;;;;6.40;85.04;100133.19;5096531;28;20024;-40
2021/03/11 01:29:15;;;;;;;16.70;13.40;;;;;;;6.39;85.41;100126.19;5097311;28;20067;-40
2021/03/11 01:31:41;;;;;;;16.90;13.50;;;;;;;6.36;85.61;100115.06;5096292;28;20047;-40
2021/03/11 01:34:06;;;;;;;16.83;12.33;;;;;;;6.37;85.88;100116.69;5096957;28;20032;-40
2021/03/11 01:36:31;;;;;;;14.00;11.40;;;;;;;6.37;85.55;100092.53;5096359;28;20459;-40
2021/03/11 01:38:56;;;;;;;18.47;13.47;;;;;;;6.33;86.00;100077.88;5095605;28;20028;-40
2021/03/11 01:41:22;;;;;;;16.07;12.67;;;;;;;6.31;86.60;100069.25;5096272;28;20082;-40
2021/03/11 01:43:48;;;;;;;14.77;11.70;;;;;;;6.33;87.21;100073.34;5096875;28;20427;-40
2021/03/11 01:46:14;;;;;;;16.58;12.90;;;;;;;6.31;87.42;100070.06;5095903;28;20064;-40
2021/03/11 01:48:39;;;;;;;15.13;12.30;;;;;;;6.30;87.55;100062.25;5096118;28;20030;-40
2021/03/11 01:51:04;;;;;;;14.67;11.40;;;;;;;6.30;87.92;100049.63;5096172;28;20032;-40
2021/03/11 01:53:30;;;;;;;13.82;11.18;;;;;;;6.30;87.49;100049.63;5095636;28;20131;-40
2021/03/11 01:55:56;;;;;;;13.43;11.00;;;;;;;6.31;87.79;100050.44;5095175;28;20032;-40
2021/03/11 01:58:22;;;;;;;14.13;10.73;;;;;;;6.33;87.81;100041.13;5095899;28;20028;-40
2021/03/11 02:00:47;;;;;;;13.63;10.63;;;;;;;6.33;87.84;100022.31;5096254;28;20032;-40
2021/03/11 02:03:13;;;;;;;15.10;11.10;;;;;;;6.34;87.98;100015.91;5095811;28;20039;-40
2021/03/11 02:05:38;;;;;;;13.25;10.48;;;;;;;6.35;88.20;100012.19;5096197;28;20058;-40
2021/03/11 02:08:04;;;;;;;15.73;11.03;;;;;;;6.37;88.11;100020.84;5095780;28;20449;-40
2021/03/11 02:10:30;;;;;;;13.63;9.95;;;;;;;6.38;88.13;100000.16;5096327;28;20460;-40
2021/03/11 02:13:26;;;;;;;14.57;11.43;;;;;;;6.41;87.88;100013.97;5095356;28;20392;-40
2021/03/11 02:15:55;;;;;;;12.98;10.20;;;;;;;6.40;88.58;100006.16;5095968;28;20028;-40
2021/03/11 02:18:27;;;;;;;12.45;9.52;;;;;;;6.41;88.71;100000.53;5095580;28;20032;-40
2021/03/11 02:20:53;;;;;;;12.10;9.95;;;;;;;6.41;88.52;99995.16;5095787;28;20052;-40
2021/03/11 02:23:39;;;;;;;11.50;9.50;;;;;;;6.47;88.93;99989.94;5096277;28;20086;-40
2021/03/11 02:26:24;;;;;;;11.73;9.88;;;;;;;6.41;89.23;99957.56;5095790;28;20286;-40
2021/03/11 02:28:55;;;;;;;11.52;9.98;;;;;;;6.42;89.39;99931.53;5095398;28;20107;-40
2021/03/11 02:31:22;;;;;;;12.07;10.13;;;;;;;6.41;89.98;99908.41;5094980;28;20047;-40
2021/03/11 02:33:50;;;;;;;11.48;9.95;;;;;;;6.39;89.94;99932.81;5096092;28;20103;-40
2021/03/11 02:36:17;;;;;;;13.07;10.82;;;;;;;6.40;90.41;99939.81;5095024;28;20028;-40
2021/03/11 02:38:44;;;;;;;14.18;10.63;;;;;;;6.40;90.67;99944.38;5095209;28;20024;-40
2021/03/11 02:41:12;;;;;;;13.65;10.60;;;;;;;6.37;90.89;99928.72;5096012;28;20364;-40
2021/03/11 02:43:38;;;;;;;13.52;10.68;;;;;;;6.40;90.82;99922.91;5095088;28;20059;-40
2021/03/11 02:46:03;;;;;;;;;;;;;;;6.41;90.63;99933.41;5095852;28;20054;-40
2021/03/11 02:48:31;;;;;;;13.15;10.50;;;;;;;6.41;91.05;99932.59;5095224;28;19908;-40
2021/03/11 02:50:58;;;;;;;14.70;10.93;;;;;;;6.41;90.74;99908.41;5095238;28;20029;-40
2021/03/11 02:53:25;;;;;;;11.70;9.85;;;;;;;6.44;90.99;99908.78;5094807;28;20055;-40
2021/03/11 02:55:51;;;;;;;;;;;;;;;6.50;90.83;99887.44;5095882;28;20068;-40
2021/03/11 02:58:16;;;;;;;12.70;10.32;;;;;;;6.50;90.87;99904.38;5094749;28;20303;-40
2021/03/11 03:00:43;;;;;;;12.48;10.85;;;;;;;6.52;90.27;99861.97;5094495;28;20035;-40
2021/03/11 03:03:10;;;;;;;11.35;9.68;;;;;;;6.55;90.86;99888.41;5094648;28;20024;-40
2021/03/11 03:05:36;;;;;;;12.23;9.77;;;;;;;6.58;90.23;99865.63;5094779;28;20036;-40
2021/03/11 03:08:03;;;;;;;;;;;;;;;6.63;90.34;99865.75;5074750;28;20040;-40
2021/03/11 03:10:31;;;;;;;11.83;9.40;;;;;;;6.65;89.80;99848.38;5074872;28;19920;-40
2021/03/11 03:13:02;;;;;;;11.95;9.48;;;;;;;6.66;90.07;99833.88;5074202;28;20052;-40
2021/03/11 03:15:28;;;;;;;12.50;9.90;;;;;;;6.70;89.85;99829.69;5074737;28;20444;-40
2021/03/11 03:17:54;;;;;;;9.77;8.77;;;;;;;6.79;89.65;99845.50;5074795;28;20035;-40
2021/03/11 03:20:23;;;;;;;12.20;9.57;;;;;;;6.84;89.34;99846.44;5074716;28;20025;-40
2021/03/11 03:22:50;;;;;;;12.00;9.82;;;;;;;6.89;89.10;99830.44;5074054;28;20029;-40
2021/03/11 03:25:17;;;;;;;12.85;10.38;;;;;;;6.91;89.18;99811.38;5074047;28;20420;-40
2021/03/11 03:27:42;;;;;;;11.75;9.45;;;;;;;6.95;88.83;99808.00;5073733;28;20024;-40
2021/03/11 03:30:17;;;;;;;10.50;9.40;;;;;;;6.97;88.95;99805.88;5074010;28;20028;-40
2021/03/11 03:32:44;;;;;;;11.27;10.05;;;;;;;7.02;88.74;99807.06;5074412;28;20070;-40
2021/03/11 03:35:10;;;;;;;13.10;10.52;;;;;;;7.04;89.15;99804.97;5073917;28;20026;-40
2021/03/11 03:37:37;;;;;;;12.88;10.45;;;;;;;7.06;88.76;99800.16;5073852;28;20032;-40
2021/03/11 03:40:08;;;;;;;12.30;10.68;;;;;;;7.07;89.27;99807.19;5072845;28;20044;-40
2021/03/11 03:42:48;;;;;;;13.38;10.88;;;;;;;7.07;89.27;99793.75;5073686;28;20028;-40
2021/03/11 03:45:20;;;;;;;12.60;10.63;;;;;;;7.08;89.26;99801.59;5074112;28;20043;-40
2021/03/11 03:47:45;;;;;;;12.38;11.07;;;;;;;7.10;89.76;99801.34;5073488;28;20025;-40
2021/03/11 03:50:12;;;;;;;16.25;11.82;;;;;;;7.12;89.90;99804.59;5073722;28;20047;-40
2021/03/11 03:52:40;;;;;;;14.23;12.30;;;;;;;7.10;90.04;99806.72;5073775;28;20052;-40
2021/03/11 03:55:09;;;;;;;13.23;11.60;;;;;;;7.11;89.99;99808.34;5073668;28;20032;-40
2021/03/11 03:57:36;;;;;;;14.45;11.68;;;;;;;7.13;90.32;99803.56;5072158;28;20093;-40
2021/03/11 04:00:06;;;;;;;14.85;12.50;;;;;;;7.14;90.90;99806.03;5073553;28;20036;-40
2021/03/11 04:02:32;;;;;;;15.85;12.25;;;;;;;7.18;90.72;99779.50;5074808;28;20341;-40
2021/03/11 04:05:01;;;;;;;15.55;12.80;;;;;;;7.19;90.92;99786.50;5073577;28;20031;-40
2021/03/11 04:07:28;;;;;;;15.68;13.00;;;;;;;7.24;91.18;99783.94;5089093;28;20432;-40
2021/03/11 04:09:54;;;;;;;14.25;11.90;;;;;;;7.25;90.94;99755.97;5094212;28;20035;-40
2021/03/11 04:12:21;;;;;;;14.98;13.18;;;;;;;7.26;90.39;99746.84;5093524;28;20028;-40
2021/03/11 04:14:48;;;;;;;14.73;12.98;;;;;;;7.29;90.78;99742.88;5093393;28;20020;-40
2021/03/11 04:17:14;;;;;;;16.67;13.00;;;;;;;7.31;90.86;99752.34;5092889;28;20024;-40
2021/03/11 04:19:41;;;;;;;16.38;12.43;;;;;;;7.32;90.83;99732.47;5093333;28;20024;-40
2021/03/11 04:22:07;;;;;;;;;;;;;;;7.38;90.92;99725.34;5093907;28;20030;-40
2021/03/11 04:24:34;;;;;;;15.18;13.05;;;;;;;7.37;90.51;99734.44;5093527;28;19908;-40
2021/03/11 04:27:02;;;;;;;13.70;12.25;;;;;;;7.41;90.61;99720.28;5093534;28;20027;-40
2021/03/11 04:29:29;;;;;;;14.90;12.30;;;;;;;7.44;90.24;99710.94;5093686;28;20036;-40
2021/03/11 04:31:55;;;;;;;14.95;12.57;;;;;;;7.45;90.22;99716.06;5093370;28;20060;-40
2021/03/11 04:34:21;;;;;;;15.07;13.05;;;;;;;7.49;89.85;99709.16;5093060;28;20043;-40
2021/03/11 04:36:47;;;;;;;15.40;12.53;;;;;;;7.54;89.82;99699.56;5093119;28;20020;-40
2021/03/11 04:39:13;;;;;;;13.65;11.60;;;;;;;7.57;90.33;99704.47;5092415;28;20032;-40
2021/03/11 04:41:38;;;;;;;13.80;11.83;;;;;;;7.61;90.23;99693.00;5093524;28;20117;-40
2021/03/11 04:44:04;;;;;;;12.97;11.33;;;;;;;7.64;88.79;99694.38;5093152;28;20039;-40
2021/03/11 04:46:30;;;;;;;;;;;;;;;7.67;89.44;99701.97;5093486;28;20056;-41
2021/03/11 04:49:00;;;;;;;13.57;11.43;;;;;;;7.67;89.29;99701.97;5093632;28;19915;-40
2021/03/11 04:51:26;;;;;;;13.38;11.88;;;;;;;7.75;88.95;99691.63;5093177;28;20029;-40
2021/03/11 04:53:53;;;;;;;14.32;11.60;;;;;;;7.79;88.56;99686.59;5093616;28;20429;-40
2021/03/11 04:56:18;;;;;;;13.07;10.90;;;;;;;7.84;88.45;99694.75;5093268;28;20465;-40
2021/03/11 04:58:44;;;;;;;14.60;10.47;;;;;;;7.89;88.22;99689.47;5093227;28;20073;-40
2021/03/11 05:01:12;;;;;;;11.60;9.43;;;;;;;7.93;88.31;99692.50;5093715;28;20443;-40
2021/03/11 05:03:42;;;;;;;10.10;9.02;;;;;;;7.95;87.56;99703.81;5093384;28;20115;-40
2021/03/11 05:06:07;;;;;;;11.38;10.18;;;;;;;7.98;87.60;99706.88;5092851;28;20105;-40
2021/03/11 05:08:33;;;;;;;11.35;9.15;;;;;;;8.01;87.65;99692.13;5093704;28;20020;-41
2021/03/11 05:10:58;;;;;;;11.17;9.27;;;;;;;8.07;87.40;99687.63;5092882;28;20110;-41
2021/03/11 05:13:24;;;;;;;10.87;9.10;;;;;;;8.11;87.11;99700.38;5093034;28;20031;-41
2021/03/11 05:15:49;;;;;;;10.02;8.55;;;;;;;8.15;87.00;99698.84;5093918;28;20024;-41
2021/03/11 05:18:15;;;;;;;11.00;8.83;;;;;;;8.17;87.56;99688.63;5093004;28;20356;-41
2021/03/11 05:20:40;;;;;;;10.13;8.40;;;;;;;8.14;86.84;99669.44;5093285;28;20067;-41
2021/03/11 05:23:05;;;;;;;9.57;8.30;;;;;;;8.17;86.69;99669.78;5092742;28;20028;-41
2021/03/11 05:25:31;;;;;;;11.15;8.63;;;;;;;8.19;86.64;99666.81;5093246;28;20024;-41
2021/03/11 05:27:56;;;;;;;10.57;8.53;;;;;;;8.24;86.70;99665.03;5092740;28;20535;-41
2021/03/11 05:30:22;;;;;;;10.40;8.23;;;;;;;8.30;86.21;99681.31;5096907;28;20055;-41
2021/03/11 05:32:47;;;;;;;9.63;7.97;;;;;;;8.31;85.93;99667.59;5096593;28;20043;-41
2021/03/11 05:35:12;;;;;;;12.27;8.50;;;;;;;8.34;86.42;99658.19;5096110;28;20319;-41
2021/03/11 05:37:39;;;;;;;8.90;8.00;;;;;;;8.34;86.05;99656.31;5096446;28;20062;-41
2021/03/11 05:40:07;;;;;;;9.38;7.97;;;;;;;8.36;86.27;99643.44;5096631;28;20073;-41
2021/03/11 05:42:33;;;;;;;9.70;8.30;;;;;;;8.39;86.32;99634.84;5095949;28;20040;-41
2021/03/11 05:44:59;;;;;;;9.32;8.32;;;;;;;8.40;86.70;99641.91;5096623;28;20061;-41
2021/03/11 05:47:25;;;;;;;10.38;8.13;;;;;;;8.42;86.22;99644.34;5096492;28;20422;-41
2021/03/11 05:49:51;;;;;;;9.05;7.53;;;;;;;8.44;86.06;99651.13;5095472;28;20380;-41
2021/03/11 05:52:16;;;;;;;10.50;7.87;;;;;;;8.45;85.69;99643.88;5096308;28;20024;-42
2021/03/11 05:54:42;;;;;;;9.33;8.30;;;;;;;8.51;85.68;99632.91;5096055;28;20046;-41
2021/03/11 05:57:08;;;;;;;11.43;8.45;;;;;;;8.54;86.54;99636.16;5095767;28;20115;-41
2021/03/11 05:59:34;;;;;;;11.52;9.35;;;;;;;8.56;85.87;99634.03;5096533;28;20024;-41
2021/03/11 06:02:05;;;;;;;9.98;8.13;;;;;;;8.54;86.49;99655.00;5095919;28;20051;-41
2021/03/11 06:04:31;;;;;;;9.75;8.75;;;;;;;8.54;86.58;99650.47;5096198;28;20103;-42
2021/03/11 06:06:57;;;;;;;10.77;8.25;;;;;;;8.55;87.11;99627.03;5095651;28;20131;-41
2021/03/11 06:09:23;;;;;;;10.85;8.45;;;;;;;8.54;85.93;99623.53;5095900;28;20512;-41
2021/03/11 06:11:49;;;;;;;10.50;8.15;;;;;;;8.58;85.63;99618.44;5095682;28;20054;-41
2021/03/11 06:14:15;;;;;;;9.40;7.78;;;;;;;8.63;86.16;99621.19;5094132;28;20070;-41
2021/03/11 06:16:57;;;;;;;9.32;7.22;;;;;;;8.63;85.48;99626.59;5095383;28;20525;-41
2021/03/11 06:19:23;;;;;;;10.70;8.25;;;;;;;8.66;86.08;99618.84;5095666;28;20016;-41
2021/03/11 06:21:48;;;;;;;9.90;7.90;;;;;;;8.66;86.13;99624.22;5096067;28;20055;-41
2021/03/11 06:24:14;;;;;;;9.03;7.33;;;;;;;8.69;85.72;99634.53;5096101;28;20035;-41
2021/03/11 06:26:39;;;;;;;8.98;7.35;;;;;;;8.70;85.90;99628.06;5095655;28;20630;-41
2021/03/11 06:29:05;;;;;;;9.67;8.07;;;;;;;8.69;86.15;99620.22;5095954;28;20031;-41
2021/03/11 06:31:35;;;;;;;9.63;7.60;;;;;;;8.70;86.83;99619.16;5095280;28;20058;-41
2021/03/11 06:34:02;;;;;;;9.75;7.68;;;;;;;8.72;86.65;99619.72;5095336;28;20132;-41
2021/03/11 06:36:30;;;;;;;9.55;7.68;;;;;;;8.71;86.43;99615.41;5095241;28;20056;-40
2021/03/11 06:38:56;;;;;;;9.13;7.18;;;;;;;8.73;86.42;99613.25;5094479;28;20031;-40
2021/03/11 06:41:21;;;;;;;;;;;;;;;8.78;85.62;99613.31;5094654;28;20028;-41
2021/03/11 06:43:57;;;;;;;9.10;6.30;;;;;;;8.77;86.86;99607.13;5095158;28;19998;-41
2021/03/11 06:46:25;;;;;;;9.43;6.25;;;;;;;8.77;86.66;99600.91;5095592;28;20365;-40
2021/03/11 06:49:03;;;;;;;11.77;6.68;;;;;;;8.75;86.77;99605.75;5095524;28;20043;-40
2021/03/11 06:51:29;;;;;;;8.82;6.07;;;;;;;8.74;87.16;99621.13;5094922;28;20063;-40
2021/03/11 06:53:59;;;;;;;13.02;7.05;;;;;;;8.77;87.19;99622.47;5095038;28;20452;-41
2021/03/11 06:56:26;;;;;;;8.77;6.00;;;;;;;8.79;86.59;99616.88;5094891;28;20036;-40
2021/03/11 06:59:02;;;;;;;9.95;5.60;;;;;;;8.81;86.82;99637.09;5095161;28;20425;-40
2021/03/11 07:01:30;;;;;;;8.07;6.03;;;;;;;8.82;85.91;99617.16;5094883;28;20065;-41
2021/03/11 07:04:01;;;;;;;7.70;5.13;;;;;;;8.85;86.07;99632.84;5095346;28;20067;-40
2021/03/11 07:06:35;;;;;;;7.28;4.72;;;;;;;8.91;85.70;99618.38;5095088;28;20040;-40
2021/03/11 07:09:03;;;;;;;5.72;4.40;;;;;;;9.01;86.17;99634.66;5094962;28;20040;-40
2021/03/11 07:11:29;;;;;;;5.85;4.30;;;;;;;9.03;85.37;99627.16;5095035;28;20031;-40
2021/03/11 07:13:58;;;;;;;6.35;3.53;;;;;;;9.11;85.13;99619.69;5094838;28;20024;-40
2021/03/11 07:16:25;;;;;;;7.13;3.88;;;;;;;9.15;84.73;99610.03;5094816;28;20024;-40
2021/03/11 07:19:27;;;;;;;5.35;3.63;;;;;;;9.22;85.16;99602.56;5094418;28;20484;-40
2021/03/11 07:21:56;;;;;;;6.50;2.97;;;;;;;9.35;84.46;99598.66;5095186;28;20160;-40
2021/03/11 07:24:37;;;;;;;5.53;2.88;;;;;;;9.45;83.87;99588.78;5094455;28;20024;-41
2021/03/11 07:27:05;;;;;;;8.95;3.75;;;;;;;9.57;83.60;99558.97;5094322;28;20031;-40
2021/03/11 07:29:30;;;;;;;5.63;2.65;;;;;;;9.65;82.01;99580.06;5094306;28;20484;-40
2021/03/11 07:32:05;;;;;;;5.57;2.50;;;;;;;9.78;81.68;99565.34;5094569;28;20077;-40
2021/03/11 07:34:35;;;;;;;7.47;4.10;;;;;;;9.85;81.05;99562.44;5094260;28;20484;-41
2021/03/11 07:37:01;;;;;;;5.93;3.00;;;;;;;9.89;80.79;99564.38;5094172;28;20040;-41
2021/03/11 07:39:35;;;;;;;6.25;3.45;;;;;;;9.95;80.92;99559.81;5093931;28;20240;-41
2021/03/11 07:42:03;;;;;;;6.93;3.17;;;;;;;9.99;80.64;99550.94;5094357;28;20451;-41
2021/03/11 07:44:29;;;;;;;6.90;3.28;;;;;;;10.01;79.49;99543.41;5094288;28;20387;-42
2021/03/11 07:46:55;;;;;;;10.13;3.65;;;;;;;10.02;78.43;99539.63;5093719;28;20421;-41
2021/03/11 07:49:21;;;;;;;7.72;2.80;;;;;;;10.06;77.83;99535.34;5094258;28;20078;-42
2021/03/11 07:51:47;;;;;;;9.57;3.05;;;;;;;10.11;76.75;99542.66;5093172;28;20020;-41
2021/03/11 07:54:13;;;;;;;10.70;3.15;;;;;;;10.18;75.12;99532.44;5094380;28;20024;-41
2021/03/11 07:56:39;;;;;;;9.40;3.17;;;;;;;10.25;74.83;99535.78;5094086;28;20028;-42
2021/03/11 07:59:05;;;;;;;9.02;2.67;;;;;;;10.31;75.19;99542.84;5094129;28;20338;-41
2021/03/11 08:01:36;;;;;;;8.20;2.78;;;;;;;10.37;75.62;99537.47;5093850;28;20076;-41
2021/03/11 08:04:02;;;;;;;7.80;3.05;;;;;;;10.36;74.92;99539.34;5093528;28;20030;-41
2021/03/11 08:06:29;;;;;;;11.15;3.17;;;;;;;10.38;73.97;99526.38;5093743;28;20452;-41
2021/03/11 08:08:54;;;;;;;12.07;3.33;;;;;;;10.40;74.99;99531.53;5093495;28;20434;-42
2021/03/11 08:11:37;;;;;;;8.73;2.80;;;;;;;10.48;74.79;99531.84;5093729;28;20032;-41
2021/03/11 08:14:24;;;;;;;9.55;2.70;;;;;;;10.53;73.51;99528.34;5093964;28;20726;-40
2021/03/11 08:16:51;;;;;;;9.68;2.90;;;;;;;10.53;74.18;99525.66;5094137;28;20054;-40
2021/03/11 08:19:43;;;;;;;7.30;2.38;;;;;;;10.56;72.39;99515.13;5093822;28;20449;-40
2021/03/11 08:22:08;;;;;;;9.32;2.25;;;;;;;10.62;72.57;99501.63;5091220;28;20392;-40
2021/03/11 08:24:44;;;;;;;10.40;3.03;;;;;;;10.63;70.73;99505.97;5093330;28;20030;-40
2021/03/11 08:27:32;;;;;;;9.00;2.60;;;;;;;10.76;70.51;99500.06;5093254;28;20037;-41
2021/03/11 08:29:59;;;;;;;13.40;3.10;;;;;;;10.82;70.96;99501.72;5092885;28;20139;-41
2021/03/11 08:32:59;;;;;;;13.15;3.30;;;;;;;11.00;69.14;99492.31;5093448;28;20039;-41
2021/03/11 08:35:27;;;;;;;9.90;3.10;;;;;;;11.09;67.89;99496.94;5050870;28;20103;-41
2021/03/11 08:37:57;;;;;;;11.02;3.30;;;;;;;11.21;66.74;99487.75;5050410;28;20044;-41
2021/03/11 08:40:38;;;;;;;10.13;2.47;;;;;;;11.33;67.45;99485.63;5050577;28;20056;-41
2021/03/11 08:43:04;;;;;;;11.27;3.17;;;;;;;11.35;65.80;99478.84;5032592;28;20045;-41
2021/03/11 08:45:36;;;;;;;15.32;3.53;;;;;;;11.40;65.72;99479.94;5051656;28;20040;-41
2021/03/11 08:48:20;;;;;;;12.00;3.45;;;;;;;11.38;65.93;99485.63;5051331;28;20395;-41
2021/03/11 08:50:54;;;;;;;15.57;3.85;;;;;;;11.38;65.03;99496.44;5051212;28;20052;-41
2021/03/11 08:53:38;;;;;;;14.13;3.42;;;;;;;11.35;65.57;99502.38;5050668;28;20029;-41
2021/03/11 08:56:18;;;;;;;12.73;3.75;;;;;;;11.29;63.94;99498.06;5050845;28;20546;-41
2021/03/11 08:58:50;;;;;;;17.45;4.63;;;;;;;11.29;62.87;99484.53;5051171;28;20033;-42
2021/03/11 09:01:42;;;;;;;19.33;4.82;;;;;;;11.35;62.09;99486.16;5051471;28;20037;-41
2021/03/11 09:04:34;;;;;;;22.92;5.05;;;;;;;11.35;61.37;99491.56;5052635;28;20086;-41
2021/03/11 09:07:25;;;;;;;16.63;4.75;;;;;;;11.29;61.46;99498.06;5054192;28;20048;-41
2021/03/11 09:09:51;;;;;;;21.70;4.88;;;;;;;11.36;61.46;99482.34;5083565;28;20043;-41
2021/03/11 09:12:21;;;;;;;19.92;4.68;;;;;;;11.38;61.29;99491.03;5097484;28;20024;-41
2021/03/11 09:14:48;;;;;;;21.80;5.78;;;;;;;11.52;61.21;99475.88;5097170;28;20449;-41
2021/03/11 09:17:16;;;;;;;24.98;5.45;;;;;;;11.62;61.07;99479.69;5097390;28;20051;-41
2021/03/11 09:19:43;;;;;;;22.85;6.05;;;;;;;11.72;59.69;99479.69;5097128;28;20024;-42
2021/03/11 09:22:22;;;;;;;21.73;5.20;;;;;;;11.81;59.09;99494.31;5096400;28;20028;-41
2021/03/11 09:24:57;;;;;;;22.00;5.00;;;;;;;11.82;57.18;99493.25;5096298;28;20058;-41
2021/03/11 09:27:22;;;;;;;23.65;5.57;;;;;;;11.85;56.19;99473.72;5096647;28;20020;-42
2021/03/11 09:29:48;;;;;;;18.83;4.68;;;;;;;11.84;56.32;99477.53;5096190;28;20031;-42
2021/03/11 09:32:15;;;;;;;22.70;5.45;;;;;;;11.82;55.49;99471.59;5096160;28;20036;-42
2021/03/11 09:35:14;;;;;;;24.20;5.28;;;;;;;11.87;55.58;99487.81;5096912;28;20064;-41
2021/03/11 09:37:47;;;;;;;19.48;5.40;;;;;;;11.98;56.67;99511.09;5054212;28;20041;-41
2021/03/11 09:40:17;;;;;;;23.35;6.13;;;;;;;12.04;56.01;99493.75;5054518;28;20421;-41
2021/03/11 09:43:02;;;;;;;20.33;5.18;;;;;;;11.97;56.35;99509.47;5054086;28;20033;-41
2021/03/11 09:45:38;;;;;;;18.83;5.25;;;;;;;11.82;56.60;99491.34;5054314;28;20036;-41
2021/03/11 09:48:12;;;;;;;26.23;6.35;;;;;;;11.71;56.63;99497.84;5053723;28;20123;-41
2021/03/11 09:50:40;;;;;;;21.02;5.10;;;;;;;11.64;57.19;99547.91;5053840;28;20107;-41
2021/03/11 09:53:05;;;;;;;22.25;5.15;;;;;;;11.58;56.81;99496.47;5053514;28;20048;-41
2021/03/11 09:55:33;;;;;;;21.55;5.40;;;;;;;11.58;57.46;99507.28;5053517;28;20529;-41
2021/03/11 09:57:58;;;;;;;20.00;4.95;;;;;;;11.60;57.14;99493.47;5054207;28;20029;-41
2021/03/11 10:00:24;;;;;;;20.05;5.00;;;;;;;11.60;57.03;99520.56;5053696;28;20075;-41
2021/03/11 10:02:51;;;;;;;18.55;5.97;;;;;;;11.59;57.64;99500.78;5053323;28;20474;-41
2021/03/11 10:05:18;;;;;;;20.80;5.40;;;;;;;11.58;56.98;99501.06;5053896;28;20040;-41
2021/03/11 10:07:53;;;;;;;31.63;5.93;;;;;;;11.58;57.51;99507.28;5053237;28;20049;-41
2021/03/11 10:10:18;;;;;;;26.52;5.88;;;;;;;11.56;57.54;99509.44;5053278;28;20052;-41
2021/03/11 10:12:45;;;;;;;20.30;5.23;;;;;;;11.56;57.11;99506.72;5065932;28;20032;-41
2021/03/11 10:15:11;;;;;;;22.55;5.30;;;;;;;11.50;56.83;99497.00;5094434;28;20032;-41
2021/03/11 10:17:37;;;;;;;20.73;4.90;;;;;;;11.48;56.77;99507.28;5096492;28;20038;-41
2021/03/11 10:20:25;;;;;;;17.40;4.93;;;;;;;11.48;56.67;99510.00;5096315;28;20106;-41
2021/03/11 10:22:50;;;;;;;21.90;5.43;;;;;;;11.47;56.08;99527.31;5095541;28;20032;-41
2021/03/11 10:25:17;;;;;;;19.10;4.93;;;;;;;11.47;56.62;99508.38;5095595;28;20156;-41
2021/03/11 10:27:44;;;;;;;16.85;4.95;;;;;;;11.53;55.92;99515.41;5095454;28;20028;-42
2021/03/11 10:30:12;;;;;;;23.73;5.90;;;;;;;11.65;55.63;99527.88;5095733;28;20032;-41
2021/03/11 10:32:39;;;;;;;19.83;5.53;;;;;;;11.79;55.89;99475.59;5094993;28;20476;-41
2021/03/11 10:35:06;;;;;;;24.02;4.70;;;;;;;11.85;55.14;99523.28;5095682;28;20028;-41
2021/03/11 10:37:36;;;;;;;27.20;5.45;;;;;;;11.95;55.15;99511.63;5095241;28;20035;-41
2021/03/11 10:40:10;;;;;;;23.40;5.13;;;;;;;12.10;55.33;99517.06;5095523;28;20028;-41
2021/03/11 10:42:50;;;;;;;21.58;5.47;;;;;;;12.08;54.16;99532.75;5095177;28;20032;-41
2021/03/11 10:45:18;;;;;;;18.08;4.93;;;;;;;12.04;54.27;99517.31;5095435;28;20028;-41
2021/03/11 10:48:02;;;;;;;22.38;4.85;;;;;;;11.94;54.16;99531.69;5095100;28;20024;-42
2021/03/11 10:50:29;;;;;;;23.50;5.60;;;;;;;11.87;54.38;99536.59;5095287;28;20024;-41
2021/03/11 10:52:56;;;;;;;17.70;5.13;;;;;;;11.79;55.26;99543.31;5094733;28;20372;-42
2021/03/11 10:55:33;;;;;;;19.63;5.13;;;;;;;11.77;54.07;99534.66;5095141;28;20053;-41
2021/03/11 10:57:59;;;;;;;20.08;4.32;;;;;;;11.79;54.02;99558.75;5095143;28;20024;-41
2021/03/11 11:00:35;;;;;;;;;;;;;;;11.82;53.58;99559.06;5095434;28;20077;-41
2021/03/11 11:03:04;;;;;;;22.42;4.82;;;;;;;11.79;54.19;99556.03;5094642;28;19912;-41
2021/03/11 11:05:32;;;;;;;21.13;4.93;;;;;;;11.82;53.06;99545.53;5095196;28;20038;-41
2021/03/11 11:07:59;;;;;;;17.83;5.30;;;;;;;11.83;54.11;99568.00;5094096;28;20058;-41
2021/03/11 11:10:27;;;;;;;24.33;4.72;;;;;;;11.97;54.32;99552.84;5095320;28;20055;-42
2021/03/11 11:12:52;;;;;;;24.58;5.70;;;;;;;12.06;53.51;99567.47;5094937;28;20402;-41
2021/03/11 11:15:18;;;;;;;30.00;5.63;;;;;;;12.25;54.40;99558.75;5094903;28;20024;-41
2021/03/11 11:17:44;;;;;;;22.60;5.32;;;;;;;12.28;52.77;99553.59;5095011;28;20274;-41
2021/03/11 11:20:13;;;;;;;28.48;5.88;;;;;;;12.29;52.71;99592.34;5094849;28;20380;-43
2021/03/11 11:22:38;;;;;;;20.85;5.28;;;;;;;12.24;52.45;99586.94;5094397;28;20480;-41
2021/03/11 11:25:05;;;;;;;20.60;4.63;;;;;;;12.13;52.34;99583.44;5094939;28;20115;-41
2021/03/11 11:27:31;;;;;;;19.05;4.13;;;;;;;12.10;53.42;99581.25;5094067;28;20657;-41
2021/03/11 11:29:57;;;;;;;19.07;4.57;;;;;;;12.08;52.81;99586.16;5094738;28;20034;-41
2021/03/11 11:32:23;;;;;;;;;;;;;;;12.11;53.62;99591.03;5094852;28;20028;-41
2021/03/11 11:34:50;;;;;;;21.73;5.22;;;;;;;12.06;53.04;99593.75;5094059;28;19912;-41
2021/03/11 11:37:16;;;;;;;14.82;4.05;;;;;;;12.05;53.25;99611.91;5094190;28;20028;-41